createdAt,value
2018-11-22T12:17:44.744Z,16.33
2018-11-22T12:20:13.677Z,14.80
2018-11-22T12:22:43.606Z,16.83
2018-11-22T12:25:13.619Z,16.57
2018-11-22T12:27:42.820Z,15.07
2018-11-22T12:30:14.622Z,15.03
2018-11-22T12:32:49.456Z,20.63
2018-11-22T12:35:25.580Z,17.03
2018-11-22T12:37:59.391Z,22.10
2018-11-22T12:40:27.765Z,15.47
2018-11-22T12:42:57.161Z,17.00
2018-11-22T12:45:26.954Z,21.00
2018-11-22T12:47:55.436Z,19.43
2018-11-22T12:50:23.899Z,22.80
2018-11-22T12:52:52.334Z,16.00
2018-11-22T12:55:25.692Z,18.27
2018-11-22T12:57:55.116Z,17.43
2018-11-22T13:00:24.515Z,13.37
2018-11-22T13:02:54.798Z,13.60
2018-11-22T13:05:23.070Z,12.87
2018-11-22T13:07:51.489Z,12.77
2018-11-22T13:10:28.436Z,13.43
2018-11-22T13:12:57.795Z,13.23
2018-11-22T13:15:27.192Z,11.97
2018-11-22T13:17:59.664Z,13.37
2018-11-22T13:20:29.935Z,14.80
2018-11-22T13:22:58.353Z,30.23
2018-11-22T13:25:26.705Z,17.47
2018-11-22T13:27:55.096Z,15.10
2018-11-22T13:30:25.950Z,15.83
2018-11-22T13:33:01.949Z,16.07
2018-11-22T13:35:34.389Z,12.80
2018-11-22T13:38:06.721Z,12.30
2018-11-22T13:40:43.333Z,28.90
2018-11-22T13:43:11.768Z,18.83
2018-11-22T13:45:42.096Z,16.03
2018-11-22T13:48:10.626Z,21.00
2018-11-22T13:50:42.178Z,25.73
2018-11-22T13:53:09.572Z,24.23
2018-11-22T13:55:38.888Z,18.47
2018-11-22T13:58:07.285Z,17.80
2018-11-22T14:00:40.839Z,13.67
2018-11-22T14:03:11.241Z,14.57
2018-11-22T14:05:39.607Z,15.53
2018-11-22T14:08:08.027Z,12.73
2018-11-22T14:10:36.328Z,12.70
2018-11-22T14:13:04.795Z,12.83
2018-11-22T14:15:33.125Z,18.83
2018-11-22T14:18:03.042Z,14.10
2018-11-22T14:20:32.762Z,19.70
2018-11-22T14:23:01.146Z,16.30
2018-11-22T14:25:29.700Z,14.27
2018-11-22T14:27:58.098Z,15.00
2018-11-22T14:30:34.300Z,15.27
2018-11-22T14:33:02.634Z,11.40
2018-11-22T14:35:31.052Z,12.10
2018-11-22T14:37:59.409Z,16.10
2018-11-22T14:40:29.296Z,13.20
2018-11-22T14:42:58.048Z,13.00
2018-11-22T14:45:26.994Z,13.17
2018-11-22T14:47:56.716Z,16.30
2018-11-22T14:50:29.595Z,22.07
2018-11-22T14:53:01.437Z,15.20
2018-11-22T14:55:31.391Z,17.67
2018-11-22T14:57:59.804Z,12.93
2018-11-22T15:00:28.249Z,19.53
2018-11-22T15:02:56.604Z,12.70
2018-11-22T15:05:25.027Z,15.90
2018-11-22T15:07:53.893Z,15.47
2018-11-22T15:10:22.302Z,15.33
2018-11-22T15:12:50.672Z,13.33
2018-11-22T15:15:21.258Z,12.87
2018-11-22T15:17:49.679Z,9.73
2018-11-22T15:20:19.139Z,13.70
2018-11-22T15:22:48.459Z,11.67
2018-11-22T15:25:18.569Z,13.80
2018-11-22T15:27:48.029Z,13.97
2018-11-22T15:30:19.020Z,12.63
2018-11-22T15:32:47.403Z,10.70
2018-11-22T15:35:18.035Z,18.63
2018-11-22T15:37:47.025Z,12.40
2018-11-22T15:40:16.974Z,13.30
2018-11-22T15:42:46.234Z,11.77
2018-11-22T15:45:17.095Z,15.43
2018-11-22T15:47:45.789Z,15.67
2018-11-22T15:50:15.464Z,18.60
2018-11-22T15:52:44.245Z,15.27
2018-11-22T15:55:20.445Z,14.80
2018-11-22T15:57:42.912Z,14.60
2018-11-22T16:00:19.309Z,13.70
2018-11-22T16:02:48.253Z,16.00
2018-11-22T16:05:17.341Z,17.00
2018-11-22T16:07:45.938Z,15.10
2018-11-22T16:10:16.748Z,18.10
2018-11-22T16:12:45.878Z,15.17
2018-11-22T16:15:20.083Z,12.30
2018-11-22T16:17:48.498Z,12.83
2018-11-22T16:20:16.981Z,15.97
2018-11-22T16:22:45.490Z,16.13
2018-11-22T16:25:15.844Z,27.87
2018-11-22T16:27:44.218Z,24.20
2018-11-22T16:30:18.857Z,16.87
2018-11-22T16:32:47.435Z,17.87
2018-11-22T16:35:17.053Z,20.27
2018-11-22T16:37:45.741Z,16.30
2018-11-22T16:40:15.513Z,16.47
2018-11-22T16:42:45.137Z,16.97
2018-11-22T16:45:21.992Z,18.23
2018-11-22T16:47:50.529Z,19.00
2018-11-22T16:50:20.450Z,34.13
2018-11-22T16:52:48.811Z,18.83
2018-11-22T16:55:17.580Z,21.00
2018-11-22T16:57:47.196Z,19.73
2018-11-22T17:00:20.063Z,19.03
2018-11-22T17:02:49.539Z,25.43
2018-11-22T17:05:18.041Z,20.20
2018-11-22T17:07:46.855Z,21.67
2018-11-22T17:10:16.840Z,23.50
2018-11-22T17:12:46.256Z,19.07
2018-11-22T17:15:16.064Z,14.77
2018-11-22T17:17:45.094Z,13.23
2018-11-22T17:20:14.692Z,16.27
2018-11-22T17:22:43.704Z,13.03
2018-11-22T17:25:15.039Z,18.17
2018-11-22T17:27:44.046Z,15.63
2018-11-22T17:30:18.850Z,17.20
2018-11-22T17:32:47.353Z,14.60
2018-11-22T17:35:19.206Z,15.80
2018-11-22T17:37:47.566Z,15.93
2018-11-22T17:40:24.897Z,15.50
2018-11-22T17:42:53.520Z,18.10
2018-11-22T17:45:23.353Z,15.47
2018-11-22T17:47:52.261Z,17.43
2018-11-22T17:50:21.583Z,16.63
2018-11-22T17:52:49.924Z,22.37
2018-11-22T17:55:19.733Z,18.77
2018-11-22T17:57:48.168Z,19.13
2018-11-22T18:00:20.785Z,19.23
2018-11-22T18:02:50.408Z,20.37
2018-11-22T18:05:18.800Z,20.03
2018-11-22T18:07:47.212Z,18.17
2018-11-22T18:10:19.155Z,18.90
2018-11-22T18:12:48.205Z,19.67
2018-11-22T18:15:17.733Z,16.80
2018-11-22T18:17:46.515Z,15.70
2018-11-22T18:20:17.334Z,20.53
2018-11-22T18:22:46.572Z,19.80
2018-11-22T18:25:16.391Z,21.60
2018-11-22T18:27:44.797Z,23.83
2018-11-22T18:30:15.621Z,20.20
2018-11-22T18:32:45.256Z,22.30
2018-11-22T18:35:14.202Z,24.60
2018-11-22T18:37:42.560Z,24.87
2018-11-22T18:40:13.306Z,22.43
2018-11-22T18:42:42.073Z,23.13
2018-11-22T18:45:12.306Z,24.33
2018-11-22T18:47:41.266Z,23.07
2018-11-22T18:50:15.636Z,21.60
2018-11-22T18:52:40.587Z,26.17
2018-11-22T18:55:09.536Z,27.97
2018-11-22T18:57:37.897Z,24.33
2018-11-22T19:00:12.881Z,25.17
2018-11-22T19:02:41.414Z,23.70
2018-11-22T19:05:11.146Z,25.80
2018-11-22T19:07:40.102Z,21.43
2018-11-22T19:10:15.782Z,20.60
2018-11-22T19:12:45.352Z,16.97
2018-11-22T19:15:15.180Z,20.50
2018-11-22T19:17:43.593Z,21.17
2018-11-22T19:20:16.348Z,20.70
2018-11-22T19:22:46.066Z,18.07
2018-11-22T19:25:14.741Z,23.17
2018-11-22T19:27:44.116Z,36.10
2018-11-22T19:30:15.211Z,30.77
2018-11-22T19:32:44.769Z,32.93
2018-11-22T19:35:14.297Z,34.30
2018-11-22T19:37:42.982Z,24.17
2018-11-22T19:40:15.324Z,22.67
2018-11-22T19:42:45.138Z,24.50
2018-11-22T19:45:15.318Z,21.70
2018-11-22T19:47:43.709Z,22.43
2018-11-22T19:50:20.217Z,19.07
2018-11-22T19:52:49.320Z,19.40
2018-11-22T19:55:19.168Z,18.60
2018-11-22T19:57:48.923Z,18.63
2018-11-22T20:00:18.346Z,17.50
2018-11-22T20:02:47.148Z,19.87
2018-11-22T20:05:16.682Z,20.70
2018-11-22T20:07:46.188Z,23.87
2018-11-22T20:10:20.382Z,20.77
2018-11-22T20:12:49.123Z,24.50
2018-11-22T20:15:17.574Z,22.20
2018-11-22T20:17:47.056Z,24.47
2018-11-22T20:20:16.455Z,18.50
2018-11-22T20:22:45.205Z,18.87
2018-11-22T20:25:13.646Z,17.80
2018-11-22T20:27:42.822Z,19.07
2018-11-22T20:30:13.745Z,21.93
2018-11-22T20:32:42.437Z,19.20
2018-11-22T20:35:13.068Z,19.40
2018-11-22T20:37:41.837Z,20.67
2018-11-22T20:40:11.496Z,19.37
2018-11-22T20:42:40.264Z,21.73
2018-11-22T20:45:10.780Z,23.40
2018-11-22T20:47:39.908Z,22.93
2018-11-22T20:50:13.948Z,18.97
2018-11-22T20:52:42.493Z,21.83
2018-11-22T20:55:16.439Z,24.40
2018-11-22T20:57:46.133Z,21.97
2018-11-22T21:00:16.242Z,25.00
2018-11-22T21:02:44.851Z,21.63
2018-11-22T21:05:13.784Z,20.03
2018-11-22T21:07:43.181Z,20.20
2018-11-22T21:10:25.247Z,20.73
2018-11-22T21:12:53.776Z,24.50
2018-11-22T21:15:25.459Z,22.90
2018-11-22T21:17:55.858Z,22.57
2018-11-22T21:20:26.868Z,20.57
2018-11-22T21:22:55.279Z,19.43
2018-11-22T21:25:23.757Z,19.73
2018-11-22T21:27:52.318Z,19.67
2018-11-22T21:30:23.761Z,18.87
2018-11-22T21:32:52.548Z,16.83
2018-11-22T21:35:21.373Z,18.53
2018-11-22T21:37:50.673Z,18.80
2018-11-22T21:40:19.995Z,15.53
2018-11-22T21:42:48.409Z,17.10
2018-11-22T21:45:18.374Z,16.73
2018-11-22T21:47:47.214Z,18.43
2018-11-22T21:50:16.777Z,16.93
2018-11-22T21:52:45.373Z,16.33
2018-11-22T21:55:15.875Z,16.97
2018-11-22T21:57:44.843Z,16.23
2018-11-22T22:00:16.272Z,17.13
2018-11-22T22:02:45.947Z,15.63
2018-11-22T22:05:13.723Z,17.37
2018-11-22T22:07:42.196Z,16.37
2018-11-22T22:10:10.775Z,20.43
2018-11-22T22:12:39.616Z,19.87
2018-11-22T22:15:11.525Z,20.37
2018-11-22T22:17:40.633Z,20.00
2018-11-22T22:20:11.468Z,21.40
2018-11-22T22:22:40.295Z,20.03
2018-11-22T22:25:10.546Z,26.43
2018-11-22T22:27:39.801Z,23.00
2018-11-22T22:30:13.725Z,20.40
2018-11-22T22:32:42.974Z,20.67
2018-11-22T22:35:11.433Z,20.33
2018-11-22T22:37:40.136Z,22.97
2018-11-22T22:40:11.464Z,20.63
2018-11-22T22:42:40.697Z,22.90
2018-11-22T22:45:09.137Z,27.70
2018-11-22T22:47:37.642Z,27.37
2018-11-22T22:50:08.600Z,26.17
2018-11-22T22:52:37.053Z,23.57
2018-11-22T22:55:06.394Z,21.93
2018-11-22T22:57:34.826Z,27.40
2018-11-22T23:00:03.365Z,29.47
2018-11-22T23:02:31.785Z,29.50
2018-11-22T23:05:00.160Z,25.10
2018-11-22T23:07:28.634Z,26.30
2018-11-22T23:09:57.033Z,24.90
2018-11-22T23:12:25.433Z,28.90
2018-11-22T23:14:53.791Z,26.90
2018-11-22T23:17:22.209Z,29.37
2018-11-22T23:19:50.565Z,30.27
2018-11-22T23:22:18.934Z,24.77
2018-11-22T23:24:47.325Z,28.53
2018-11-22T23:27:15.811Z,22.37
2018-11-22T23:29:47.712Z,22.67
2018-11-22T23:32:16.236Z,27.97
2018-11-22T23:34:48.907Z,25.87
2018-11-22T23:37:21.453Z,26.40
2018-11-22T23:39:50.015Z,24.43
2018-11-22T23:42:18.409Z,25.63
2018-11-22T23:44:46.992Z,29.73
2018-11-22T23:47:15.340Z,22.50
2018-11-22T23:49:43.768Z,17.90
2018-11-22T23:52:12.174Z,18.37
2018-11-22T23:54:40.569Z,20.97
2018-11-22T23:57:09.004Z,17.80
2018-11-22T23:59:37.550Z,15.60
